createdAt,value
2022-09-10T00:00:04.840Z,53.49
2022-09-10T00:02:34.745Z,53.96
2022-09-10T00:05:04.972Z,53.97
2022-09-10T00:07:54.832Z,54.42
2022-09-10T00:10:26.397Z,54.92
2022-09-10T00:12:56.911Z,55.04
2022-09-10T00:15:26.945Z,54.85
2022-09-10T00:17:57.308Z,54.77
2022-09-10T00:20:27.283Z,55.09
2022-09-10T00:22:58.456Z,54.87
2022-09-10T00:25:32.164Z,54.71
2022-09-10T00:28:02.221Z,54.62
2022-09-10T00:30:32.033Z,54.95
2022-09-10T00:33:03.143Z,54.89
2022-09-10T00:35:33.864Z,54.76
2022-09-10T00:38:05.435Z,54.90
2022-09-10T00:40:35.698Z,54.77
2022-09-10T00:43:12.803Z,54.90
2022-09-10T00:45:45.238Z,54.95
2022-09-10T00:48:19.468Z,54.92
2022-09-10T00:50:51.849Z,54.91
2022-09-10T00:53:27.660Z,54.95
2022-09-10T00:56:05.263Z,55.01
2022-09-10T00:58:36.499Z,55.02
2022-09-10T01:01:07.711Z,54.99
2022-09-10T01:03:39.932Z,55.16
2022-09-10T01:06:10.676Z,55.09
2022-09-10T01:08:42.068Z,55.17
2022-09-10T01:11:34.853Z,55.42
2022-09-10T01:14:20.596Z,55.37
2022-09-10T01:17:03.470Z,55.26
2022-09-10T01:20:05.747Z,55.63
2022-09-10T01:22:55.225Z,55.66
2022-09-10T01:25:40.569Z,55.65
2022-09-10T01:28:18.600Z,56.63
2022-09-10T01:30:53.172Z,56.33
2022-09-10T01:33:30.525Z,56.21
2022-09-10T01:36:04.581Z,55.94
2022-09-10T01:38:38.725Z,55.95
2022-09-10T01:41:10.763Z,56.11
2022-09-10T01:43:42.297Z,56.06
2022-09-10T01:46:28.339Z,55.87
2022-09-10T01:49:11.313Z,55.79
2022-09-10T01:51:56.713Z,56.78
2022-09-10T01:54:41.024Z,56.60
2022-09-10T01:57:15.657Z,56.68
2022-09-10T01:59:53.755Z,56.43
2022-09-10T02:02:30.095Z,56.91
2022-09-10T02:05:02.603Z,57.90
2022-09-10T02:07:34.965Z,58.61
2022-09-10T02:10:07.198Z,59.86
2022-09-10T02:12:40.078Z,60.32
2022-09-10T02:15:12.820Z,60.05
2022-09-10T02:17:44.093Z,60.48
2022-09-10T02:20:14.956Z,60.65
2022-09-10T02:22:51.749Z,60.71
2022-09-10T02:25:21.530Z,61.04
2022-09-10T02:27:51.339Z,60.75
2022-09-10T02:30:24.838Z,61.21
2022-09-10T02:32:54.664Z,61.13
2022-09-10T02:35:24.502Z,60.76
2022-09-10T02:37:54.463Z,60.66
2022-09-10T02:40:24.311Z,60.39
2022-09-10T02:42:55.623Z,60.47
2022-09-10T02:45:26.917Z,60.67
2022-09-10T02:47:56.744Z,61.17
2022-09-10T02:50:26.642Z,61.46
2022-09-10T02:52:57.618Z,61.44
2022-09-10T02:55:27.524Z,61.92
2022-09-10T02:57:58.371Z,62.06
2022-09-10T03:00:31.595Z,62.35
2022-09-10T03:03:03.274Z,62.28
2022-09-10T03:05:33.532Z,61.94
2022-09-10T03:08:04.188Z,61.88
2022-09-10T03:10:34.250Z,62.04
2022-09-10T03:13:04.185Z,61.96
2022-09-10T03:15:36.021Z,62.04
2022-09-10T03:18:06.811Z,61.93
2022-09-10T03:20:37.339Z,62.27
2022-09-10T03:23:07.807Z,62.60
2022-09-10T03:25:37.768Z,63.04
2022-09-10T03:28:07.659Z,62.46
2022-09-10T03:30:40.255Z,62.35
2022-09-10T03:33:11.878Z,62.46
2022-09-10T03:35:41.832Z,62.34
2022-09-10T03:38:11.648Z,62.16
2022-09-10T03:40:41.977Z,61.96
2022-09-10T03:43:14.012Z,62.26
2022-09-10T03:45:45.552Z,62.31
2022-09-10T03:48:15.418Z,62.42
2022-09-10T03:50:46.042Z,62.51
2022-09-10T03:53:18.045Z,63.21
2022-09-10T03:55:51.893Z,63.37
2022-09-10T03:58:21.868Z,63.04
2022-09-10T04:00:53.063Z,63.28
2022-09-10T04:03:23.071Z,63.44
2022-09-10T04:05:52.975Z,63.63
2022-09-10T04:08:23.293Z,63.76
2022-09-10T04:10:53.093Z,63.45
2022-09-10T04:13:23.125Z,63.45
2022-09-10T04:15:56.096Z,63.60
2022-09-10T04:18:27.451Z,63.31
2022-09-10T04:20:57.387Z,63.37
2022-09-10T04:23:27.507Z,63.21
2022-09-10T04:25:57.577Z,63.45
2022-09-10T04:28:27.526Z,63.41
2022-09-10T04:30:59.740Z,64.03
2022-09-10T04:33:29.559Z,63.62
2022-09-10T04:36:00.978Z,64.13
2022-09-10T04:38:31.247Z,63.82
2022-09-10T04:41:01.704Z,63.58
2022-09-10T04:43:32.797Z,63.46
2022-09-10T04:46:04.136Z,63.63
2022-09-10T04:48:34.485Z,63.44
2022-09-10T04:51:16.173Z,63.10
2022-09-10T04:53:47.473Z,63.17
2022-09-10T04:56:18.445Z,63.37
2022-09-10T04:58:48.471Z,63.42
2022-09-10T05:01:19.882Z,63.11
2022-09-10T05:03:49.648Z,63.10
2022-09-10T05:06:20.361Z,63.08
2022-09-10T05:08:51.172Z,63.09
2022-09-10T05:11:21.314Z,62.83
2022-09-10T05:13:51.316Z,62.22
2022-09-10T05:16:22.567Z,61.89
2022-09-10T05:18:53.190Z,61.75
2022-09-10T05:21:23.632Z,61.28
2022-09-10T05:23:53.384Z,60.98
2022-09-10T05:26:23.300Z,61.39
2022-09-10T05:28:55.568Z,61.53
2022-09-10T05:31:27.850Z,61.06
2022-09-10T05:33:59.368Z,60.62
2022-09-10T05:36:32.040Z,60.80
2022-09-10T05:39:03.173Z,60.35
2022-09-10T05:41:33.289Z,59.92
2022-09-10T05:44:03.194Z,59.70
2022-09-10T05:46:34.689Z,59.68
2022-09-10T05:49:04.500Z,60.45
2022-09-10T05:51:34.444Z,60.54
2022-09-10T05:54:04.501Z,61.27
2022-09-10T05:56:34.775Z,61.07
2022-09-10T05:59:05.654Z,60.76
2022-09-10T06:01:37.768Z,60.54
2022-09-10T06:04:07.472Z,60.51
2022-09-10T06:06:37.301Z,60.24
2022-09-10T06:09:07.296Z,60.59
2022-09-10T06:11:37.117Z,60.69
2022-09-10T06:14:07.344Z,61.12
2022-09-10T06:16:38.982Z,61.85
2022-09-10T06:19:09.719Z,61.39
2022-09-10T06:21:39.506Z,60.87
2022-09-10T06:24:10.628Z,61.15
2022-09-10T06:26:40.535Z,60.54
2022-09-10T06:29:11.742Z,60.19
2022-09-10T06:31:43.391Z,60.40
2022-09-10T06:34:13.137Z,60.03
2022-09-10T06:36:43.732Z,60.01
2022-09-10T06:39:13.504Z,60.15
2022-09-10T06:41:47.897Z,59.96
2022-09-10T06:44:19.472Z,59.95
2022-09-10T06:47:19.905Z,59.44
2022-09-10T06:49:40.751Z,59.68
2022-09-10T06:52:11.546Z,59.47
2022-09-10T06:54:41.291Z,59.58
2022-09-10T06:57:11.419Z,59.79
2022-09-10T06:59:41.365Z,59.95
2022-09-10T07:02:12.990Z,59.77
2022-09-10T07:04:42.947Z,59.09
2022-09-10T07:07:12.750Z,58.99
2022-09-10T07:09:43.266Z,58.76
2022-09-10T07:12:12.991Z,58.08
2022-09-10T07:14:43.199Z,57.88
2022-09-10T07:17:14.334Z,58.06
2022-09-10T07:19:44.143Z,58.02
2022-09-10T07:22:13.859Z,58.06
2022-09-10T07:24:43.684Z,57.67
2022-09-10T07:27:13.437Z,57.83
2022-09-10T07:29:43.340Z,57.40
2022-09-10T07:32:14.611Z,57.29
2022-09-10T07:34:46.652Z,57.03
2022-09-10T07:37:16.696Z,56.98
2022-09-10T07:39:47.066Z,57.28
2022-09-10T07:42:17.176Z,56.72
2022-09-10T07:44:46.908Z,56.53
2022-09-10T07:47:18.817Z,56.01
2022-09-10T07:49:48.892Z,56.12
2022-09-10T07:52:19.254Z,55.76
2022-09-10T07:54:49.403Z,55.49
2022-09-10T07:57:19.408Z,55.74
2022-09-10T07:59:49.535Z,55.66
2022-09-10T08:02:22.137Z,55.80
2022-09-10T08:04:52.185Z,55.63
2022-09-10T08:07:22.047Z,54.86
2022-09-10T08:09:52.060Z,54.45
2022-09-10T08:12:22.153Z,54.53
2022-09-10T08:14:52.250Z,54.39
2022-09-10T08:17:23.447Z,54.30
2022-09-10T08:19:53.939Z,53.68
2022-09-10T08:22:24.405Z,53.78
2022-09-10T08:24:55.899Z,53.54
2022-09-10T08:27:25.744Z,53.00
2022-09-10T08:29:58.129Z,53.18
2022-09-10T08:32:29.354Z,53.09
2022-09-10T08:34:59.473Z,53.05
2022-09-10T08:37:31.268Z,52.89
2022-09-10T08:40:01.488Z,53.33
2022-09-10T08:42:40.048Z,53.31
2022-09-10T08:45:15.115Z,53.46
2022-09-10T08:47:54.331Z,52.57
2022-09-10T08:50:30.310Z,52.09
2022-09-10T08:53:09.503Z,51.69
2022-09-10T08:55:45.045Z,51.71
2022-09-10T08:58:42.529Z,51.80
2022-09-10T09:01:19.177Z,51.75
2022-09-10T09:03:50.909Z,51.64
2022-09-10T09:06:29.708Z,51.77
2022-09-10T09:09:01.937Z,51.57
2022-09-10T09:11:42.261Z,51.43
2022-09-10T09:14:33.647Z,50.73
2022-09-10T09:17:27.749Z,50.79
2022-09-10T09:20:11.203Z,50.83
2022-09-10T09:22:51.383Z,51.02
2022-09-10T09:25:28.906Z,50.96
2022-09-10T09:27:59.965Z,50.90
2022-09-10T09:30:35.696Z,50.35
2022-09-10T09:33:14.736Z,50.61
2022-09-10T09:35:50.379Z,50.69
2022-09-10T09:38:24.816Z,50.08
2022-09-10T09:40:58.019Z,50.25
2022-09-10T09:43:36.310Z,49.89
2022-09-10T09:46:16.806Z,49.65
2022-09-10T09:48:48.018Z,49.63
2022-09-10T09:51:21.504Z,49.97
2022-09-10T09:54:06.178Z,50.08
2022-09-10T09:56:45.636Z,50.24
2022-09-10T09:59:26.892Z,49.40
2022-09-10T10:02:00.720Z,50.03
2022-09-10T10:04:33.945Z,49.58
2022-09-10T10:07:05.610Z,49.03
2022-09-10T10:09:43.499Z,48.69
2022-09-10T10:12:21.070Z,49.15
2022-09-10T10:14:51.473Z,48.99
2022-09-10T10:17:35.066Z,48.87
2022-09-10T10:20:11.424Z,49.55
2022-09-10T10:22:44.226Z,48.51
2022-09-10T10:25:38.446Z,48.26
2022-09-10T10:28:17.528Z,47.83
2022-09-10T10:30:53.457Z,48.05
2022-09-10T10:33:29.424Z,47.72
2022-09-10T10:36:11.763Z,47.72
2022-09-10T10:38:49.347Z,47.58
2022-09-10T10:41:40.967Z,47.73
2022-09-10T10:44:35.346Z,47.84
2022-09-10T10:47:24.484Z,48.11
2022-09-10T10:50:04.729Z,47.76
2022-09-10T10:52:44.562Z,48.06
2022-09-10T10:55:24.477Z,47.94
2022-09-10T10:58:10.469Z,47.01
2022-09-10T11:00:45.495Z,47.32
2022-09-10T11:03:23.987Z,47.45
2022-09-10T11:06:00.912Z,47.00
2022-09-10T11:08:36.837Z,47.17
2022-09-10T11:11:14.327Z,46.87
2022-09-10T11:13:48.436Z,46.53
2022-09-10T11:16:24.494Z,47.00
2022-09-10T11:18:58.341Z,47.05
2022-09-10T11:21:33.063Z,46.98
2022-09-10T11:24:11.981Z,46.46
2022-09-10T11:26:52.176Z,47.83
2022-09-10T11:29:35.463Z,47.33
2022-09-10T11:32:10.008Z,48.15
2022-09-10T11:34:49.420Z,48.34
2022-09-10T11:37:25.554Z,48.18
2022-09-10T11:40:01.150Z,48.15
2022-09-10T11:42:40.873Z,47.59
2022-09-10T11:45:21.979Z,47.58
2022-09-10T11:48:00.385Z,48.05
2022-09-10T11:50:38.022Z,48.14
2022-09-10T11:53:12.747Z,48.47
2022-09-10T11:55:59.470Z,47.47
2022-09-10T11:58:40.722Z,47.55
2022-09-10T12:01:17.700Z,47.16
2022-09-10T12:04:05.640Z,47.25
2022-09-10T12:06:54.877Z,47.60
2022-09-10T12:09:31.217Z,47.51
2022-09-10T12:12:10.380Z,47.41
2022-09-10T12:14:42.394Z,48.06
2022-09-10T12:17:18.482Z,47.26
2022-09-10T12:19:53.137Z,47.42
2022-09-10T12:22:28.204Z,48.24
2022-09-10T12:25:03.085Z,47.41
2022-09-10T12:27:46.443Z,48.17
2022-09-10T12:30:55.919Z,48.26
2022-09-10T12:34:16.551Z,48.35
2022-09-10T12:37:24.778Z,48.03
2022-09-10T12:40:40.519Z,48.24
2022-09-10T12:43:51.587Z,49.05
2022-09-10T12:46:25.785Z,47.73
2022-09-10T12:49:12.015Z,48.39
2022-09-10T12:51:57.947Z,48.62
2022-09-10T12:54:50.878Z,48.98
2022-09-10T12:57:29.166Z,48.89
2022-09-10T13:00:19.310Z,48.41
2022-09-10T13:02:53.936Z,48.05
2022-09-10T13:05:32.282Z,48.61
2022-09-10T13:08:12.224Z,49.00
2022-09-10T13:10:44.711Z,49.09
2022-09-10T13:13:34.185Z,49.31
2022-09-10T13:16:06.307Z,49.88
2022-09-10T13:18:39.176Z,48.72
2022-09-10T13:21:42.215Z,48.61
2022-09-10T13:25:00.766Z,49.10
2022-09-10T13:27:39.735Z,49.64
2022-09-10T13:30:17.910Z,49.80
2022-09-10T13:32:51.887Z,50.28
2022-09-10T13:35:45.518Z,50.23
2022-09-10T13:38:39.879Z,49.75
2022-09-10T13:41:36.489Z,49.92
2022-09-10T13:44:22.742Z,49.41
2022-09-10T13:46:57.446Z,50.31
2022-09-10T13:49:36.421Z,49.94
2022-09-10T13:52:13.760Z,50.13
2022-09-10T13:54:51.683Z,49.28
2022-09-10T13:57:31.330Z,49.12
2022-09-10T14:00:07.202Z,49.63
2022-09-10T14:02:48.610Z,49.45
2022-09-10T14:05:27.528Z,49.35
2022-09-10T14:08:01.798Z,49.76
2022-09-10T14:10:33.915Z,49.60
2022-09-10T14:13:05.925Z,50.04
2022-09-10T14:15:40.392Z,49.96
2022-09-10T14:18:12.348Z,50.55
2022-09-10T14:20:43.288Z,51.64
2022-09-10T14:23:17.027Z,51.57
2022-09-10T14:25:47.661Z,53.17
2022-09-10T14:28:25.845Z,54.04
2022-09-10T14:31:21.027Z,54.33
2022-09-10T14:33:51.140Z,53.99
2022-09-10T14:36:24.153Z,54.23
2022-09-10T14:38:57.838Z,54.26
2022-09-10T14:41:31.467Z,54.23
2022-09-10T14:44:29.826Z,54.24
2022-09-10T14:47:01.071Z,54.00
2022-09-10T14:49:33.944Z,53.65
2022-09-10T14:52:05.176Z,52.97
2022-09-10T14:54:36.262Z,53.06
2022-09-10T14:57:13.318Z,53.94
2022-09-10T14:59:46.563Z,53.68
2022-09-10T15:02:20.821Z,52.46
2022-09-10T15:04:51.000Z,52.02
2022-09-10T15:07:21.299Z,51.77
2022-09-10T15:09:54.296Z,51.89
2022-09-10T15:12:27.139Z,52.12
2022-09-10T15:14:59.253Z,52.04
2022-09-10T15:17:29.710Z,51.94
2022-09-10T15:19:59.903Z,51.71
2022-09-10T15:22:31.635Z,51.93
2022-09-10T15:25:10.541Z,51.74
2022-09-10T15:27:42.007Z,52.05
2022-09-10T15:30:13.576Z,52.03
2022-09-10T15:32:43.457Z,52.62
2022-09-10T15:35:13.868Z,52.50
2022-09-10T15:37:43.735Z,53.42
2022-09-10T15:40:13.720Z,52.39
2022-09-10T15:42:43.921Z,52.25
2022-09-10T15:45:15.376Z,52.63
2022-09-10T15:47:45.529Z,52.42
2022-09-10T15:50:16.386Z,52.89
2022-09-10T15:52:46.431Z,53.55
2022-09-10T15:55:16.627Z,53.94
2022-09-10T15:57:47.575Z,54.17
2022-09-10T16:00:20.446Z,53.95
2022-09-10T16:02:54.522Z,53.88
2022-09-10T16:05:24.849Z,54.04
2022-09-10T16:07:55.048Z,54.20
2022-09-10T16:10:25.280Z,55.06
2022-09-10T16:12:55.344Z,54.99
2022-09-10T16:15:27.336Z,55.05
2022-09-10T16:17:58.263Z,55.72
2022-09-10T16:20:28.519Z,56.32
2022-09-10T16:22:59.747Z,56.84
2022-09-10T16:25:31.249Z,57.69
2022-09-10T16:28:01.698Z,58.08
2022-09-10T16:30:33.247Z,57.84
2022-09-10T16:33:03.335Z,58.74
2022-09-10T16:35:36.019Z,58.86
2022-09-10T16:38:06.358Z,58.96
2022-09-10T16:40:36.338Z,59.37
2022-09-10T16:43:07.075Z,59.18
2022-09-10T16:45:38.449Z,59.26
2022-09-10T16:48:08.587Z,58.92
2022-09-10T16:50:38.655Z,58.88
2022-09-10T16:53:12.014Z,59.01
2022-09-10T16:55:42.207Z,59.23
2022-09-10T16:58:13.312Z,59.61
2022-09-10T17:00:44.926Z,59.56
2022-09-10T17:03:15.528Z,59.59
2022-09-10T17:05:46.919Z,59.89
2022-09-10T17:08:17.150Z,59.98
2022-09-10T17:10:47.584Z,59.87
2022-09-10T17:13:17.965Z,60.05
2022-09-10T17:15:49.635Z,60.36
2022-09-10T17:18:19.725Z,60.36
2022-09-10T17:20:49.965Z,61.01
2022-09-10T17:23:20.219Z,60.47
2022-09-10T17:25:50.637Z,60.71
2022-09-10T17:28:20.609Z,60.77
2022-09-10T17:30:56.621Z,60.51
2022-09-10T17:33:27.441Z,60.30
2022-09-10T17:35:58.534Z,60.16
2022-09-10T17:38:32.376Z,59.88
2022-09-10T17:41:04.684Z,59.97
2022-09-10T17:43:36.813Z,59.87
2022-09-10T17:46:10.722Z,59.61
2022-09-10T17:48:41.396Z,59.82
2022-09-10T17:51:14.052Z,59.69
2022-09-10T17:53:46.590Z,59.42
2022-09-10T17:56:19.167Z,59.42
2022-09-10T17:58:49.859Z,59.62
2022-09-10T18:01:25.745Z,59.88
2022-09-10T18:03:56.683Z,59.82
2022-09-10T18:06:29.425Z,60.14
2022-09-10T18:09:02.052Z,60.41
2022-09-10T18:11:36.017Z,60.95
2022-09-10T18:14:07.416Z,60.93
2022-09-10T18:16:38.967Z,61.23
2022-09-10T18:19:14.266Z,61.40
2022-09-10T18:21:46.812Z,61.16
2022-09-10T18:24:19.264Z,61.58
2022-09-10T18:26:50.552Z,61.68
2022-09-10T18:29:22.362Z,61.68
2022-09-10T18:31:57.804Z,62.04
2022-09-10T18:34:46.889Z,62.19
2022-09-10T18:37:17.104Z,62.26
2022-09-10T18:39:48.156Z,62.33
2022-09-10T18:42:18.267Z,62.92
2022-09-10T18:44:49.342Z,62.53
2022-09-10T18:47:40.930Z,62.50
2022-09-10T18:50:15.276Z,62.61
2022-09-10T18:52:45.695Z,62.51
2022-09-10T18:55:16.280Z,62.90
2022-09-10T18:57:46.354Z,62.96
2022-09-10T19:00:17.480Z,62.78
2022-09-10T19:02:49.790Z,62.68
2022-09-10T19:05:20.027Z,62.81
2022-09-10T19:07:50.258Z,62.68
2022-09-10T19:10:23.041Z,62.70
2022-09-10T19:12:55.739Z,62.60
2022-09-10T19:15:28.084Z,62.66
2022-09-10T19:18:01.357Z,62.80
2022-09-10T19:20:37.753Z,62.57
2022-09-10T19:23:09.747Z,62.38
2022-09-10T19:25:40.898Z,61.88
2022-09-10T19:28:11.236Z,62.05
2022-09-10T19:30:41.063Z,62.14
2022-09-10T19:33:12.635Z,62.24
2022-09-10T19:35:42.613Z,62.08
2022-09-10T19:38:34.268Z,62.15
2022-09-10T19:41:05.632Z,61.81
2022-09-10T19:43:37.147Z,61.93
2022-09-10T19:46:10.181Z,62.00
2022-09-10T19:48:42.327Z,62.00
2022-09-10T19:51:14.467Z,62.10
2022-09-10T19:53:44.702Z,62.06
2022-09-10T19:56:20.267Z,61.97
2022-09-10T19:58:52.167Z,62.09
2022-09-10T20:01:24.052Z,62.03
2022-09-10T20:03:56.250Z,62.18
2022-09-10T20:06:26.430Z,62.17
2022-09-10T20:08:57.534Z,62.51
2022-09-10T20:11:29.962Z,62.35
2022-09-10T20:14:03.445Z,62.35
2022-09-10T20:16:33.837Z,62.28
2022-09-10T20:19:06.244Z,62.50
2022-09-10T20:21:37.551Z,62.42
2022-09-10T20:24:08.287Z,62.51
2022-09-10T20:26:41.129Z,62.53
2022-09-10T20:29:13.281Z,62.70
2022-09-10T20:31:44.145Z,62.16
2022-09-10T20:34:17.297Z,62.35
2022-09-10T20:36:47.898Z,62.35
2022-09-10T20:39:20.232Z,62.17
2022-09-10T20:41:50.461Z,62.29
2022-09-10T20:44:20.904Z,62.34
2022-09-10T20:46:51.948Z,62.63
2022-09-10T20:49:23.152Z,62.75
2022-09-10T20:51:53.602Z,62.91
2022-09-10T20:54:23.711Z,63.62
2022-09-10T20:56:53.511Z,63.81
2022-09-10T20:59:27.776Z,63.93
2022-09-10T21:01:58.178Z,64.33
2022-09-10T21:04:29.461Z,65.09
2022-09-10T21:06:59.701Z,65.64
2022-09-10T21:09:29.463Z,65.60
2022-09-10T21:11:59.220Z,65.51
2022-09-10T21:14:28.973Z,65.30
2022-09-10T21:16:58.615Z,64.90
2022-09-10T21:19:29.819Z,64.99
2022-09-10T21:21:59.739Z,64.60
2022-09-10T21:24:29.540Z,64.68
2022-09-10T21:26:59.432Z,64.72
2022-09-10T21:29:29.160Z,64.84
2022-09-10T21:31:59.988Z,65.15
2022-09-10T21:34:32.472Z,64.80
2022-09-10T21:37:02.350Z,64.92
2022-09-10T21:39:32.060Z,65.05
2022-09-10T21:42:04.383Z,65.02
2022-09-10T21:44:34.241Z,65.27
2022-09-10T21:47:04.000Z,65.53
2022-09-10T21:49:35.363Z,65.77
2022-09-10T21:52:05.759Z,65.86
2022-09-10T21:54:36.621Z,65.74
2022-09-10T21:57:10.916Z,66.30
2022-09-10T21:59:41.645Z,66.32
2022-09-10T22:02:11.468Z,66.49
2022-09-10T22:04:43.070Z,66.57
2022-09-10T22:07:14.201Z,66.57
2022-09-10T22:09:43.994Z,67.21
2022-09-10T22:12:13.883Z,66.97
2022-09-10T22:14:43.840Z,67.10
2022-09-10T22:17:13.632Z,66.72
2022-09-10T22:19:44.804Z,66.74
2022-09-10T22:22:14.524Z,66.56
2022-09-10T22:24:44.661Z,66.53
2022-09-10T22:27:14.377Z,66.42
2022-09-10T22:29:45.297Z,66.37
2022-09-10T22:32:15.798Z,66.61
2022-09-10T22:34:48.052Z,66.40
2022-09-10T22:37:18.004Z,66.76
2022-09-10T22:39:47.803Z,66.70
2022-09-10T22:42:21.180Z,66.90
2022-09-10T22:44:51.160Z,67.12
2022-09-10T22:47:20.959Z,67.07
2022-09-10T22:49:52.112Z,67.02
2022-09-10T22:52:21.826Z,67.25
2022-09-10T22:54:52.479Z,67.04
2022-09-10T22:57:22.292Z,67.36
2022-09-10T22:59:52.292Z,67.84
2022-09-10T23:02:22.394Z,68.04
2022-09-10T23:04:53.723Z,68.18
2022-09-10T23:07:25.908Z,68.17
2022-09-10T23:09:55.833Z,67.89
2022-09-10T23:12:25.572Z,67.83
2022-09-10T23:14:55.369Z,67.80
2022-09-10T23:17:25.306Z,68.15
2022-09-10T23:19:56.454Z,67.77
2022-09-10T23:22:26.255Z,67.73
2022-09-10T23:24:56.593Z,68.43
2022-09-10T23:27:26.385Z,68.50
2022-09-10T23:29:56.618Z,68.31
2022-09-10T23:32:26.396Z,68.31
2022-09-10T23:34:57.527Z,68.65
2022-09-10T23:37:27.379Z,68.61
2022-09-10T23:39:57.125Z,68.71
2022-09-10T23:42:27.474Z,68.89
2022-09-10T23:44:57.266Z,68.87
2022-09-10T23:47:27.015Z,68.71
2022-09-10T23:49:58.244Z,68.88
2022-09-10T23:52:27.974Z,68.77
2022-09-10T23:54:57.772Z,68.72
2022-09-10T23:57:27.521Z,68.57
2022-09-10T23:59:57.284Z,68.74
